Time;durP1;ratioP1;P1;durP2;ratioP2;P2;SDS_P1;SDS_P2;PMS_P1;PMS_P2;Temp;Humidity;BMP_temperature;BMP_pressure;BME280_temperature;BME280_humidity;BME280_pressure;Samples;Min_cycle;Max_cycle;Signal;HPM_P1;HPM_P2
2023/09/30 00:02:16;;;;;;;0.65;0.52;;;14.50;63.40;;;;;;5033556;28;20033;-71
2023/09/30 00:04:42;;;;;;;0.45;0.40;;;14.50;63.40;;;;;;5034548;28;20029;-70
2023/09/30 00:07:08;;;;;;;1.38;0.73;;;14.50;63.70;;;;;;5032656;28;20033;-71
2023/09/30 00:09:34;;;;;;;2.05;0.95;;;14.50;63.90;;;;;;5034386;28;20034;-71
2023/09/30 00:12:00;;;;;;;0.90;0.80;;;14.50;63.80;;;;;;5033381;28;20056;-71
2023/09/30 00:14:26;;;;;;;1.20;0.75;;;14.50;63.90;;;;;;5032813;28;20084;-70
2023/09/30 00:16:52;;;;;;;1.20;0.47;;;14.50;64.20;;;;;;5032522;28;20041;-71
2023/09/30 00:19:18;;;;;;;2.28;1.35;;;14.50;64.30;;;;;;5034219;28;20042;-70
2023/09/30 00:21:44;;;;;;;1.10;0.75;;;14.40;64.40;;;;;;5031832;28;20564;-71
2023/09/30 00:24:10;;;;;;;0.45;0.35;;;14.40;64.60;;;;;;5032801;28;20041;-70
2023/09/30 00:26:36;;;;;;;0.70;0.40;;;14.50;64.70;;;;;;5033496;28;20037;-70
2023/09/30 00:29:04;;;;;;;0.60;0.43;;;14.50;64.70;;;;;;5032722;28;20030;-70
2023/09/30 00:31:31;;;;;;;0.80;0.52;;;14.50;64.60;;;;;;5032955;28;20064;-70
2023/09/30 00:33:57;;;;;;;1.77;1.55;;;14.50;64.40;;;;;;5032675;28;20041;-71
2023/09/30 00:36:24;;;;;;;1.65;0.90;;;14.50;64.70;;;;;;5032960;28;20037;-70
2023/09/30 00:38:49;;;;;;;;;;;14.50;64.60;;;;;;5032825;28;20033;-70
2023/09/30 00:41:16;;;;;;;0.88;0.63;;;14.50;64.60;;;;;;5015092;28;20430;-71
2023/09/30 00:43:41;;;;;;;3.50;1.95;;;14.40;64.60;;;;;;5033817;28;20033;-71
2023/09/30 00:46:45;;;;;;;1.75;0.80;;;14.40;64.40;;;;;;5031888;28;20044;-70
2023/09/30 00:49:14;;;;;;;0.68;0.40;;;14.40;64.40;;;;;;5032340;28;20037;-70
2023/09/30 00:51:40;;;;;;;0.95;0.60;;;14.30;63.90;;;;;;5031337;28;20041;-71
2023/09/30 00:54:07;;;;;;;1.05;0.68;;;14.30;63.90;;;;;;5033558;28;20432;-70
2023/09/30 00:56:34;;;;;;;0.95;0.57;;;14.30;63.20;;;;;;5031670;28;20033;-70
2023/09/30 00:59:01;;;;;;;0.80;0.63;;;14.20;63.70;;;;;;5032076;28;20142;-70
2023/09/30 01:01:27;;;;;;;0.98;0.75;;;14.20;63.70;;;;;;5032222;28;20061;-71
2023/09/30 01:03:53;;;;;;;0.85;0.45;;;14.10;64.20;;;;;;5031963;28;20037;-70
2023/09/30 01:06:19;;;;;;;0.28;0.28;;;14.10;64.60;;;;;;5031408;28;20037;-70
2023/09/30 01:08:45;;;;;;;1.88;0.40;;;13.90;64.60;;;;;;5015403;28;20064;-71
2023/09/30 01:11:13;;;;;;;1.35;1.13;;;13.90;65.10;;;;;;5030763;28;20053;-70
2023/09/30 01:13:39;;;;;;;2.60;0.77;;;13.90;65.10;;;;;;5031773;28;20076;-71
2023/09/30 01:16:09;;;;;;;0.95;0.50;;;14.00;65.40;;;;;;5032546;28;20064;-71
2023/09/30 01:18:36;;;;;;;1.08;0.88;;;14.00;65.20;;;;;;5031676;28;20395;-71
2023/09/30 01:21:05;;;;;;;0.75;0.32;;;14.00;65.10;;;;;;5030512;28;20080;-71
2023/09/30 01:23:35;;;;;;;0.73;0.60;;;14.00;65.50;;;;;;5015004;28;20430;-70
2023/09/30 01:26:20;;;;;;;1.13;0.80;;;14.00;65.50;;;;;;5032567;28;20103;-70
2023/09/30 01:28:48;;;;;;;1.15;0.45;;;14.00;65.50;;;;;;5033008;28;20038;-71
2023/09/30 01:31:15;;;;;;;2.17;1.25;;;14.00;65.80;;;;;;5030532;28;20041;-71
2023/09/30 01:33:41;;;;;;;1.50;1.17;;;14.00;65.80;;;;;;5015024;28;20148;-71
2023/09/30 01:36:07;;;;;;;1.30;0.70;;;14.00;66.00;;;;;;5032191;28;20367;-70
2023/09/30 01:38:33;;;;;;;0.75;0.40;;;14.00;66.20;;;;;;5031111;28;20478;-71
2023/09/30 01:40:59;;;;;;;1.08;0.80;;;14.00;66.30;;;;;;5030427;28;20041;-71
2023/09/30 01:43:26;;;;;;;0.98;0.85;;;14.10;66.30;;;;;;5032505;28;20099;-70
2023/09/30 01:45:52;;;;;;;2.72;0.98;;;14.00;66.00;;;;;;5030739;28;20065;-71
2023/09/30 01:48:18;;;;;;;3.20;1.63;;;14.00;66.30;;;;;;5030447;28;20100;-70
2023/09/30 01:50:44;;;;;;;2.10;0.88;;;14.00;66.50;;;;;;5030217;28;20384;-71
2023/09/30 01:53:10;;;;;;;;;;;14.00;66.70;;;;;;5032886;28;20037;-71
2023/09/30 01:55:37;;;;;;;4.18;1.83;;;14.00;66.70;;;;;;5031816;28;19939;-71
2023/09/30 01:58:03;;;;;;;4.10;1.55;;;14.00;67.30;;;;;;5031025;28;20463;-71
2023/09/30 02:00:30;;;;;;;;;;;14.00;67.10;;;;;;5030356;28;20498;-71
2023/09/30 02:02:56;;;;;;;1.45;1.17;;;13.90;66.80;;;;;;5032182;28;19955;-71
2023/09/30 02:05:23;;;;;;;2.63;1.77;;;13.90;66.20;;;;;;5030432;28;20379;-71
2023/09/30 02:07:50;;;;;;;2.75;1.65;;;13.90;67.10;;;;;;5030928;28;20083;-70
2023/09/30 02:10:21;;;;;;;1.88;1.42;;;13.90;67.80;;;;;;5029894;28;20034;-71
2023/09/30 02:12:47;;;;;;;0.88;0.63;;;13.80;67.60;;;;;;5030925;28;20025;-71
2023/09/30 02:15:14;;;;;;;3.97;1.02;;;13.80;67.50;;;;;;5030280;28;20041;-71
2023/09/30 02:17:45;;;;;;;2.17;1.08;;;13.80;67.40;;;;;;5030618;28;20033;-70
2023/09/30 02:20:18;;;;;;;1.05;0.73;;;13.80;67.40;;;;;;5029558;28;20081;-71
2023/09/30 02:22:46;;;;;;;1.80;1.48;;;13.80;66.90;;;;;;5030621;28;20483;-70
2023/09/30 02:25:12;;;;;;;1.48;0.98;;;13.60;66.30;;;;;;5030163;28;20026;-71
2023/09/30 02:27:41;;;;;;;2.83;1.05;;;13.50;65.80;;;;;;5030568;28;20467;-71
2023/09/30 02:30:10;;;;;;;1.25;0.70;;;13.40;66.00;;;;;;5029825;28;20421;-72
2023/09/30 02:32:56;;;;;;;1.88;1.45;;;13.40;65.90;;;;;;5030576;28;20038;-71
2023/09/30 02:35:22;;;;;;;5.50;1.23;;;13.20;65.70;;;;;;5029830;28;20033;-71
2023/09/30 02:37:51;;;;;;;;;;;13.10;66.10;;;;;;5031176;28;20022;-71
2023/09/30 02:40:18;;;;;;;2.13;1.02;;;13.00;65.30;;;;;;5030577;28;19932;-70
2023/09/30 02:42:44;;;;;;;1.90;0.77;;;13.00;65.40;;;;;;5030314;28;20033;-71
2023/09/30 02:45:12;;;;;;;3.15;1.50;;;13.00;66.00;;;;;;5013417;28;20034;-70
2023/09/30 02:47:39;;;;;;;1.80;1.38;;;13.00;66.10;;;;;;5030368;28;20494;-70
2023/09/30 02:55:34;;;;;;;1.98;0.93;;;13.00;66.10;;;;;;5031081;28;20282;-72
2023/09/30 02:58:00;;;;;;;2.67;1.35;;;13.00;66.40;;;;;;5031577;28;20041;-71
2023/09/30 03:00:26;;;;;;;0.70;0.65;;;13.00;66.60;;;;;;5016036;28;20465;-71
2023/09/30 03:02:53;;;;;;;1.38;1.08;;;13.00;66.30;;;;;;5035593;28;20541;-71
2023/09/30 03:05:20;;;;;;;1.67;1.17;;;13.00;66.00;;;;;;5034803;28;20045;-71
2023/09/30 03:07:47;;;;;;;1.77;0.80;;;12.90;65.80;;;;;;5034275;28;20033;-71
2023/09/30 03:13:03;;;;;;;1.55;0.88;;;12.90;66.20;;;;;;5035366;28;20584;-71
2023/09/30 03:18:14;;;;;;;0.52;0.50;;;13.00;66.40;;;;;;5035308;28;20060;-71
2023/09/30 03:20:40;;;;;;;1.50;0.93;;;12.90;66.30;;;;;;5034102;28;20049;-71
2023/09/30 03:23:06;;;;;;;2.95;1.98;;;12.90;66.30;;;;;;5033859;28;20037;-71
2023/09/30 03:25:32;;;;;;;1.83;0.77;;;12.80;66.00;;;;;;5034559;28;20056;-71
2023/09/30 03:27:58;;;;;;;0.77;0.57;;;12.80;66.10;;;;;;5035053;28;20040;-70
2023/09/30 03:30:24;;;;;;;;;;;12.80;66.20;;;;;;5033312;28;20041;-71
2023/09/30 03:32:50;;;;;;;1.67;1.08;;;12.80;66.50;;;;;;5034987;28;20007;-71
2023/09/30 03:35:16;;;;;;;1.77;0.98;;;12.80;66.50;;;;;;5033155;28;20471;-70
2023/09/30 03:37:44;;;;;;;;;;;12.90;66.60;;;;;;5035322;28;20498;-71
2023/09/30 03:40:14;;;;;;;2.40;1.40;;;12.90;66.40;;;;;;5032436;28;19921;-70
2023/09/30 03:42:42;;;;;;;2.83;1.00;;;13.00;66.70;;;;;;5033462;28;20064;-71
2023/09/30 03:45:09;;;;;;;2.13;1.05;;;13.00;66.60;;;;;;5033003;28;20029;-70
2023/09/30 03:47:54;;;;;;;2.17;1.23;;;13.00;66.90;;;;;;5034565;28;20116;-70
2023/09/30 03:50:23;;;;;;;1.50;0.75;;;13.10;67.40;;;;;;5033611;28;20041;-70
2023/09/30 03:52:49;;;;;;;1.52;0.73;;;13.10;67.40;;;;;;5034559;28;20030;-70
2023/09/30 03:55:17;;;;;;;2.95;1.58;;;13.20;67.60;;;;;;5032829;28;20580;-71
2023/09/30 04:00:29;;;;;;;2.20;1.17;;;13.20;67.50;;;;;;5033400;28;20048;-71
2023/09/30 04:02:58;;;;;;;2.60;1.23;;;13.30;67.90;;;;;;5034417;28;20376;-70
2023/09/30 04:05:28;;;;;;;2.45;1.17;;;13.30;68.50;;;;;;5033707;28;20107;-70
2023/09/30 04:07:56;;;;;;;1.25;1.10;;;13.20;68.20;;;;;;5033294;28;20083;-70
2023/09/30 04:10:22;;;;;;;1.77;1.13;;;13.20;68.50;;;;;;5031628;28;20044;-70
2023/09/30 04:12:49;;;;;;;2.67;1.65;;;13.20;67.80;;;;;;5032822;28;20037;-70
2023/09/30 04:15:15;;;;;;;0.90;0.50;;;13.10;68.10;;;;;;5032191;28;20036;-71
2023/09/30 04:17:41;;;;;;;2.15;1.33;;;13.10;68.90;;;;;;5034056;28;20036;-70
2023/09/30 04:20:10;;;;;;;;;;;13.10;68.20;;;;;;5033458;28;20115;-70
2023/09/30 04:22:38;;;;;;;2.92;2.28;;;13.10;68.80;;;;;;5032760;28;19913;-70
2023/09/30 04:25:10;;;;;;;1.17;0.82;;;13.10;68.70;;;;;;5032571;28;20060;-70
2023/09/30 04:27:37;;;;;;;1.77;0.40;;;13.00;67.90;;;;;;5032781;28;20124;-71
2023/09/30 04:32:50;;;;;;;1.08;0.98;;;12.90;68.30;;;;;;5033483;28;20041;-70
2023/09/30 04:35:16;;;;;;;1.08;0.43;;;12.90;68.30;;;;;;5033346;28;20040;-70
2023/09/30 04:37:43;;;;;;;0.88;0.73;;;12.80;68.30;;;;;;5033693;28;20422;-70
2023/09/30 04:40:15;;;;;;;1.33;0.73;;;12.80;68.50;;;;;;5031474;28;20397;-71
2023/09/30 04:42:44;;;;;;;1.42;1.05;;;12.80;68.00;;;;;;5032536;28;20025;-70
2023/09/30 04:45:11;;;;;;;2.58;1.17;;;12.70;68.20;;;;;;5031780;28;20042;-70
2023/09/30 04:47:38;;;;;;;1.55;1.35;;;12.70;68.10;;;;;;5032195;28;20029;-71
2023/09/30 04:50:07;;;;;;;2.53;1.25;;;12.70;68.20;;;;;;5031580;28;20034;-71
2023/09/30 04:52:53;;;;;;;1.73;1.15;;;12.70;68.40;;;;;;5032052;28;20041;-70
2023/09/30 04:55:19;;;;;;;2.22;1.02;;;12.70;68.80;;;;;;5031768;28;20421;-70
2023/09/30 04:57:47;;;;;;;11.63;1.60;;;12.60;68.90;;;;;;5032463;28;20109;-70
2023/09/30 05:00:19;;;;;;;0.80;0.57;;;12.60;69.10;;;;;;5031050;28;20490;-70
2023/09/30 05:02:47;;;;;;;0.73;0.65;;;12.60;68.80;;;;;;5033323;28;20451;-70
2023/09/30 05:05:14;;;;;;;1.80;1.23;;;12.60;68.80;;;;;;5014960;28;20057;-71
2023/09/30 05:10:26;;;;;;;2.53;1.52;;;12.60;68.60;;;;;;5032411;28;20102;-70
2023/09/30 05:12:54;;;;;;;;;;;12.60;68.30;;;;;;5032363;28;21825;-70
2023/09/30 05:15:21;;;;;;;1.77;1.17;;;12.60;67.90;;;;;;5032386;28;19913;-70
2023/09/30 05:17:48;;;;;;;2.10;1.58;;;12.60;68.30;;;;;;5031842;28;20433;-70
2023/09/30 05:23:00;;;;;;;1.73;1.05;;;12.70;68.80;;;;;;5031964;28;20520;-71
2023/09/30 05:25:27;;;;;;;1.17;0.68;;;12.70;69.00;;;;;;5031124;28;20037;-71
2023/09/30 05:27:54;;;;;;;2.03;0.95;;;12.80;68.90;;;;;;5031475;28;20037;-71
2023/09/30 05:30:20;;;;;;;2.60;0.90;;;12.70;68.60;;;;;;5030526;28;20025;-71
2023/09/30 05:32:47;;;;;;;3.50;2.05;;;12.70;68.60;;;;;;5031532;28;20022;-70
2023/09/30 05:35:13;;;;;;;3.92;2.63;;;12.70;68.60;;;;;;5030911;28;20056;-70
2023/09/30 05:37:41;;;;;;;3.50;1.80;;;12.70;68.70;;;;;;5032569;28;20474;-70
2023/09/30 05:40:21;;;;;;;2.22;0.55;;;12.70;68.90;;;;;;5031607;28;20037;-70
2023/09/30 05:42:49;;;;;;;1.63;0.93;;;12.70;69.00;;;;;;5031411;28;20040;-70
2023/09/30 05:45:16;;;;;;;2.67;1.30;;;12.70;68.50;;;;;;5030577;28;20029;-70
2023/09/30 05:47:42;;;;;;;;;;;12.80;69.20;;;;;;5031723;28;20040;-71
2023/09/30 05:50:09;;;;;;;1.85;1.25;;;12.90;69.10;;;;;;5031548;28;19916;-70
2023/09/30 05:52:35;;;;;;;1.52;0.90;;;12.90;68.90;;;;;;5032191;28;20040;-70
2023/09/30 05:55:02;;;;;;;;;;;13.00;69.10;;;;;;5031438;28;20045;-70
2023/09/30 05:57:28;;;;;;;4.68;2.05;;;13.10;69.40;;;;;;5030837;28;19974;-71
2023/09/30 05:59:54;;;;;;;;;;;13.10;69.60;;;;;;5033049;28;20490;-70
2023/09/30 06:02:20;;;;;;;1.77;1.10;;;13.20;69.60;;;;;;5029982;28;19917;-70
2023/09/30 06:04:47;;;;;;;1.67;1.45;;;13.30;70.30;;;;;;5014622;28;20474;-70
2023/09/30 06:07:13;;;;;;;2.67;1.80;;;13.40;69.50;;;;;;5031780;28;20037;-70
2023/09/30 06:09:39;;;;;;;3.38;1.27;;;13.50;69.30;;;;;;5032316;28;20065;-70
2023/09/30 06:12:06;;;;;;;1.50;0.95;;;13.50;69.20;;;;;;5030008;28;20056;-71
2023/09/30 06:14:33;;;;;;;2.95;1.55;;;13.60;68.40;;;;;;5032119;28;20059;-72
2023/09/30 06:16:59;;;;;;;1.67;0.70;;;13.70;69.40;;;;;;5031552;28;20033;-70
2023/09/30 06:19:25;;;;;;;0.98;0.73;;;13.70;69.30;;;;;;5030778;28;20517;-70
2023/09/30 06:21:52;;;;;;;1.48;0.57;;;13.80;69.50;;;;;;5031049;28;20459;-70
2023/09/30 06:24:21;;;;;;;1.75;1.00;;;13.80;69.20;;;;;;5030735;28;20037;-72
2023/09/30 06:26:48;;;;;;;0.73;0.65;;;14.00;69.20;;;;;;5030248;28;20044;-72
2023/09/30 06:29:15;;;;;;;2.08;0.77;;;14.20;68.70;;;;;;5032106;28;20037;-70
2023/09/30 06:31:41;;;;;;;0.98;0.70;;;14.20;68.70;;;;;;5030972;28;20037;-71
2023/09/30 06:34:07;;;;;;;0.55;0.52;;;14.30;68.60;;;;;;5034171;28;20044;-71
2023/09/30 06:36:33;;;;;;;1.60;0.60;;;14.30;68.50;;;;;;5037949;28;20041;-71
2023/09/30 06:38:59;;;;;;;1.73;0.70;;;14.50;68.40;;;;;;5037038;28;20041;-71
2023/09/30 06:41:25;;;;;;;1.13;0.90;;;14.60;68.40;;;;;;5037561;28;20568;-70
2023/09/30 06:43:51;;;;;;;1.70;1.17;;;14.70;68.20;;;;;;5038590;28;20037;-70
2023/09/30 06:46:18;;;;;;;1.50;1.02;;;14.80;67.10;;;;;;5036618;28;20037;-71
2023/09/30 06:48:44;;;;;;;4.68;1.73;;;15.10;67.80;;;;;;5037195;28;20026;-70
2023/09/30 06:51:29;;;;;;;;;;;15.20;67.60;;;;;;5036606;28;20042;-72
2023/09/30 06:53:55;;;;;;;1.95;1.02;;;15.40;67.50;;;;;;5037101;28;20393;-71
2023/09/30 06:56:21;;;;;;;2.53;1.42;;;15.40;67.10;;;;;;5036406;28;20048;-72
2023/09/30 06:58:47;;;;;;;0.70;0.50;;;15.30;67.30;;;;;;5037082;28;20034;-70
2023/09/30 07:04:01;;;;;;;1.90;1.30;;;15.40;66.80;;;;;;5037508;28;20064;-72
2023/09/30 07:06:27;;;;;;;0.50;0.35;;;15.40;67.20;;;;;;5036454;28;20482;-71
2023/09/30 07:08:53;;;;;;;;;;;15.60;67.20;;;;;;5037427;28;20041;-71
2023/09/30 07:11:38;;;;;;;1.23;0.90;;;15.70;67.10;;;;;;5035857;28;20004;-71
2023/09/30 07:14:04;;;;;;;0.40;0.40;;;15.90;67.10;;;;;;5037072;28;20035;-71
2023/09/30 07:16:30;;;;;;;1.67;1.23;;;15.90;66.60;;;;;;5037514;28;20068;-71
2023/09/30 07:18:57;;;;;;;2.55;1.48;;;15.90;66.70;;;;;;5038171;28;20049;-72
2023/09/30 07:21:22;;;;;;;;;;;16.10;66.50;;;;;;5037417;28;20128;-71
2023/09/30 07:23:48;;;;;;;0.70;0.70;;;16.10;66.50;;;;;;5036995;28;19923;-70
2023/09/30 07:26:14;;;;;;;1.23;0.77;;;16.20;66.10;;;;;;5047619;28;20474;-71
2023/09/30 07:28:40;;;;;;;1.85;1.17;;;16.50;66.30;;;;;;5033483;28;20096;-71
2023/09/30 07:31:06;;;;;;;2.55;0.95;;;16.60;65.80;;;;;;5017190;28;20038;-71
2023/09/30 07:33:32;;;;;;;1.20;0.50;;;16.70;65.70;;;;;;5018087;28;20034;-72
2023/09/30 07:35:58;;;;;;;1.63;0.90;;;16.90;65.60;;;;;;5020477;28;20072;-71
2023/09/30 07:38:25;;;;;;;1.40;0.88;;;17.10;65.10;;;;;;5018130;28;20064;-71
2023/09/30 07:40:51;;;;;;;1.27;0.85;;;17.20;64.80;;;;;;5049672;28;20030;-71
2023/09/30 07:43:17;;;;;;;3.08;1.05;;;17.30;64.80;;;;;;5036523;28;20084;-72
2023/09/30 07:45:43;;;;;;;2.85;1.48;;;17.40;64.50;;;;;;5035030;28;20063;-71
2023/09/30 07:48:10;;;;;;;1.27;0.98;;;17.60;63.90;;;;;;5034781;28;20037;-71
2023/09/30 07:50:37;;;;;;;0.57;0.38;;;17.80;63.60;;;;;;5029152;28;20037;-71
2023/09/30 07:53:03;;;;;;;1.50;0.82;;;18.20;62.80;;;;;;5014768;28;20060;-72
2023/09/30 07:55:29;;;;;;;4.07;2.35;;;18.60;62.40;;;;;;5014324;28;20030;-71
2023/09/30 07:57:59;;;;;;;1.58;0.80;;;19.20;61.10;;;;;;5013266;28;20116;-71
2023/09/30 08:00:25;;;;;;;1.08;0.80;;;19.30;60.10;;;;;;5015452;28;20427;-72
2023/09/30 08:02:51;;;;;;;1.83;0.95;;;20.20;59.70;;;;;;5034401;28;20437;-71
2023/09/30 08:05:17;;;;;;;2.00;1.08;;;21.40;56.70;;;;;;5032607;28;20050;-71
2023/09/30 08:07:44;;;;;;;;;;;22.50;54.60;;;;;;5034868;28;20057;-72
2023/09/30 08:12:57;;;;;;;1.30;1.08;;;24.60;49.30;;;;;;5034454;28;20414;-72
2023/09/30 08:15:24;;;;;;;2.08;1.55;;;25.70;46.40;;;;;;5032403;28;20474;-71
2023/09/30 08:17:50;;;;;;;1.38;0.75;;;26.60;43.50;;;;;;5034069;28;20030;-71
2023/09/30 08:20:17;;;;;;;;;;;27.50;42.40;;;;;;5032205;28;20506;-72
2023/09/30 08:22:43;;;;;;;1.47;0.97;;;27.50;41.50;;;;;;5026849;28;20012;-72
2023/09/30 08:25:10;;;;;;;7.70;3.97;;;27.90;39.30;;;;;;5021049;28;20295;-74
2023/09/30 08:27:38;;;;;;;8.05;2.90;;;28.50;37.90;;;;;;5032505;28;20483;-74
2023/09/30 08:30:06;;;;;;;0.95;0.80;;;29.10;35.10;;;;;;5033043;28;20032;-73
2023/09/30 08:32:51;;;;;;;2.05;1.00;;;29.50;33.90;;;;;;5032495;28;20056;-74
2023/09/30 08:35:17;;;;;;;3.45;1.40;;;30.00;32.40;;;;;;5015471;28;20029;-74
2023/09/30 08:37:43;;;;;;;0.45;0.45;;;30.40;30.50;;;;;;5041366;28;20053;-75
2023/09/30 08:40:13;;;;;;;1.70;1.10;;;30.80;31.10;;;;;;5025397;28;20112;-75
2023/09/30 08:42:39;;;;;;;2.42;1.33;;;31.10;30.00;;;;;;5023154;28;20112;-74
2023/09/30 08:45:10;;;;;;;1.80;0.95;;;31.10;29.80;;;;;;5024383;28;20029;-74
2023/09/30 08:47:37;;;;;;;0.85;0.80;;;32.00;29.30;;;;;;5026821;28;20426;-74
2023/09/30 08:50:06;;;;;;;1.83;1.20;;;32.90;28.00;;;;;;5010796;28;20411;-74
2023/09/30 08:52:33;;;;;;;1.65;1.17;;;33.50;27.00;;;;;;5022114;28;20085;-74
2023/09/30 08:55:00;;;;;;;0.98;0.63;;;33.70;26.60;;;;;;5024875;28;20046;-74
2023/09/30 08:57:26;;;;;;;1.27;0.63;;;34.20;26.00;;;;;;5009548;28;20083;-74
2023/09/30 08:59:54;;;;;;;0.77;0.57;;;34.40;25.30;;;;;;5026476;28;20049;-74
2023/09/30 09:02:20;;;;;;;3.00;1.30;;;34.80;24.30;;;;;;5021777;28;20502;-74
2023/09/30 09:04:46;;;;;;;2.92;1.20;;;35.40;24.70;;;;;;5026121;28;20070;-75
2023/09/30 09:07:12;;;;;;;1.42;0.82;;;35.70;24.20;;;;;;5008869;28;20128;-74
2023/09/30 09:09:39;;;;;;;6.57;4.78;;;35.80;23.90;;;;;;5026597;28;20059;-74
2023/09/30 09:12:06;;;;;;;4.88;3.17;;;36.50;23.80;;;;;;5023963;28;20037;-74
2023/09/30 09:14:51;;;;;;;5.68;2.85;;;36.40;22.90;;;;;;5027584;28;20048;-74
2023/09/30 09:17:17;;;;;;;1.13;0.98;;;35.70;23.80;;;;;;5024574;28;20063;-73
2023/09/30 09:19:43;;;;;;;2.88;1.50;;;35.70;23.60;;;;;;5025706;28;20042;-74
2023/09/30 09:22:09;;;;;;;2.13;1.63;;;34.50;25.00;;;;;;5025034;28;20126;-75
2023/09/30 09:24:54;;;;;;;5.70;1.83;;;33.00;26.10;;;;;;5026272;28;20088;-75
2023/09/30 09:27:22;;;;;;;2.13;1.17;;;31.90;26.50;;;;;;5021043;28;20041;-73
2023/09/30 09:29:48;;;;;;;1.73;0.80;;;31.00;28.20;;;;;;5023514;28;20162;-74
2023/09/30 09:32:16;;;;;;;2.03;1.20;;;30.30;29.50;;;;;;5022559;28;20044;-74
2023/09/30 09:34:44;;;;;;;1.58;1.20;;;29.80;29.80;;;;;;5037321;28;20033;-73
2023/09/30 09:37:32;;;;;;;1.05;0.90;;;29.60;30.40;;;;;;5020792;28;20037;-74
2023/09/30 09:39:58;;;;;;;1.45;0.73;;;29.10;31.70;;;;;;5023968;28;20596;-74
2023/09/30 09:42:44;;;;;;;4.60;1.38;;;28.60;31.60;;;;;;5019651;28;20041;-74
2023/09/30 09:45:11;;;;;;;1.17;0.95;;;28.20;32.80;;;;;;5039100;28;20040;-73
2023/09/30 09:47:37;;;;;;;2.55;1.10;;;27.80;33.20;;;;;;5023386;28;20109;-73
2023/09/30 09:50:05;;;;;;;5.80;3.13;;;27.60;33.50;;;;;;5021052;28;20083;-74
2023/09/30 09:52:34;;;;;;;1.48;0.88;;;27.50;34.70;;;;;;5026585;28;20112;-74
2023/09/30 09:55:02;;;;;;;2.13;1.08;;;27.40;34.30;;;;;;5024583;28;20055;-73
2023/09/30 09:57:31;;;;;;;2.00;0.82;;;27.30;34.20;;;;;;5024693;28;20069;-74
2023/09/30 09:59:58;;;;;;;1.33;0.90;;;27.20;34.80;;;;;;5026538;28;20075;-74
2023/09/30 10:02:25;;;;;;;2.58;1.27;;;27.00;35.90;;;;;;5023187;28;20045;-74
2023/09/30 10:04:51;;;;;;;1.73;1.00;;;26.80;35.30;;;;;;5025582;28;20230;-73
2023/09/30 10:07:38;;;;;;;1.77;0.77;;;26.80;35.80;;;;;;5024893;28;20040;-73
2023/09/30 10:10:13;;;;;;;2.55;1.17;;;26.70;37.40;;;;;;5024049;28;20083;-74
2023/09/30 10:12:39;;;;;;;1.92;0.98;;;26.70;36.50;;;;;;5021949;28;20042;-73
2023/09/30 10:15:25;;;;;;;3.95;1.38;;;26.80;36.20;;;;;;5026649;28;20045;-74
2023/09/30 10:18:12;;;;;;;3.67;2.38;;;27.00;36.40;;;;;;5025060;28;20036;-73
2023/09/30 10:20:41;;;;;;;1.35;1.02;;;26.90;35.90;;;;;;5014778;28;20050;-73
2023/09/30 10:23:35;;;;;;;1.95;1.38;;;27.10;36.40;;;;;;5008620;28;20065;-73
2023/09/30 10:26:17;;;;;;;1.90;1.25;;;27.70;35.20;;;;;;5021616;28;20026;-73
2023/09/30 10:28:51;;;;;;;0.82;0.70;;;27.30;34.90;;;;;;5024243;28;20069;-73
2023/09/30 10:31:37;;;;;;;2.17;1.38;;;27.20;35.60;;;;;;5022274;28;20585;-73
2023/09/30 10:34:22;;;;;;;4.43;1.73;;;27.00;37.10;;;;;;5026095;28;20038;-73
2023/09/30 10:36:52;;;;;;;2.00;1.23;;;26.80;37.20;;;;;;5021068;28;20045;-74
2023/09/30 10:39:58;;;;;;;1.05;0.68;;;26.70;37.00;;;;;;5026309;28;20037;-73
2023/09/30 10:43:02;;;;;;;2.20;1.75;;;26.50;37.30;;;;;;5023508;28;20045;-73
2023/09/30 10:45:48;;;;;;;1.88;1.33;;;26.40;38.00;;;;;;5026251;28;21381;-73
2023/09/30 10:48:35;;;;;;;1.38;0.80;;;26.40;37.60;;;;;;5020933;28;20113;-74
2023/09/30 10:51:21;;;;;;;0.73;0.73;;;26.50;37.60;;;;;;5024253;28;20065;-73
2023/09/30 10:54:07;;;;;;;0.80;0.70;;;26.50;38.20;;;;;;5024103;28;20364;-74
2023/09/30 10:56:34;;;;;;;3.00;1.65;;;26.80;36.80;;;;;;5024414;28;20539;-73
2023/09/30 10:59:02;;;;;;;2.45;2.20;;;27.40;36.40;;;;;;5026574;28;20124;-73
2023/09/30 11:01:36;;;;;;;2.22;1.60;;;27.30;36.70;;;;;;5022759;28;20052;-74
2023/09/30 11:04:05;;;;;;;18.40;2.60;;;27.10;37.30;;;;;;5025567;28;20033;-73
2023/09/30 11:06:31;;;;;;;2.00;1.27;;;26.90;37.40;;;;;;5007648;28;20056;-72
2023/09/30 11:09:00;;;;;;;2.28;1.05;;;26.80;38.70;;;;;;5024939;28;20037;-73
2023/09/30 11:11:48;;;;;;;2.08;1.55;;;26.80;38.80;;;;;;5023329;28;20149;-74
2023/09/30 11:14:33;;;;;;;0.50;0.50;;;26.60;38.90;;;;;;5024083;28;20503;-73
2023/09/30 11:17:03;;;;;;;1.05;0.90;;;26.60;38.90;;;;;;5025693;28;20124;-73
2023/09/30 11:19:48;;;;;;;2.15;1.00;;;26.80;38.90;;;;;;5024474;28;20107;-74
2023/09/30 11:22:15;;;;;;;0.65;0.52;;;27.10;37.70;;;;;;5023246;28;20116;-73
2023/09/30 11:24:42;;;;;;;2.38;0.88;;;27.10;38.30;;;;;;5026002;28;20042;-73
2023/09/30 11:27:08;;;;;;;1.58;0.93;;;27.20;38.70;;;;;;5028951;28;20038;-73
2023/09/30 11:29:35;;;;;;;2.42;1.60;;;27.40;37.80;;;;;;5028764;28;20068;-73
2023/09/30 11:32:02;;;;;;;1.60;1.15;;;27.90;36.90;;;;;;5026164;28;20037;-72
2023/09/30 11:34:47;;;;;;;2.47;1.52;;;28.80;34.40;;;;;;5034621;28;20044;-73
2023/09/30 11:37:14;;;;;;;2.17;1.45;;;31.10;31.10;;;;;;5032819;28;20513;-73
2023/09/30 11:39:40;;;;;;;1.88;1.23;;;31.00;30.10;;;;;;5035138;28;20088;-73
2023/09/30 11:42:17;;;;;;;0.70;0.45;;;30.20;31.30;;;;;;5031906;28;20040;-73
2023/09/30 11:45:02;;;;;;;0.47;0.47;;;29.50;32.30;;;;;;5017685;28;20072;-73
2023/09/30 11:47:48;;;;;;;1.67;1.20;;;29.30;33.50;;;;;;5019294;28;20050;-73
2023/09/30 11:50:14;;;;;;;5.30;1.33;;;29.80;32.10;;;;;;5032999;28;20503;-73
2023/09/30 11:52:46;;;;;;;1.42;0.93;;;29.60;31.90;;;;;;5033239;28;20033;-73
2023/09/30 11:55:12;;;;;;;1.90;1.20;;;29.90;31.10;;;;;;5032624;28;20109;-73
2023/09/30 11:57:39;;;;;;;1.38;0.93;;;29.70;31.50;;;;;;5033272;28;20060;-73
2023/09/30 12:02:50;;;;;;;2.83;1.13;;;29.50;32.20;;;;;;5034463;28;20041;-73
2023/09/30 12:05:16;;;;;;;0.88;0.70;;;29.50;32.30;;;;;;5032600;28;20026;-73
2023/09/30 12:07:42;;;;;;;5.07;1.30;;;30.20;31.30;;;;;;5034434;28;20057;-73
2023/09/30 12:10:09;;;;;;;1.88;1.00;;;31.40;29.50;;;;;;5033382;28;20403;-73
2023/09/30 12:12:35;;;;;;;2.78;1.75;;;31.10;29.00;;;;;;5034421;28;20547;-73
2023/09/30 12:15:02;;;;;;;2.33;1.25;;;30.70;29.30;;;;;;5032862;28;20038;-73
2023/09/30 12:17:28;;;;;;;0.47;0.40;;;30.50;29.70;;;;;;5032391;28;20033;-74
2023/09/30 12:19:54;;;;;;;1.58;0.93;;;30.30;30.20;;;;;;5032810;28;20103;-73
2023/09/30 12:22:20;;;;;;;0.57;0.47;;;30.00;30.70;;;;;;5031947;28;20045;-73
2023/09/30 12:24:47;;;;;;;1.30;1.05;;;29.80;30.90;;;;;;5016730;28;20049;-73
2023/09/30 12:27:13;;;;;;;2.70;1.48;;;29.60;31.20;;;;;;5048942;28;20036;-73
2023/09/30 12:29:40;;;;;;;1.98;1.13;;;29.60;31.50;;;;;;5032929;28;20045;-73
2023/09/30 12:32:06;;;;;;;0.73;0.60;;;29.40;31.80;;;;;;5032633;28;20172;-73
2023/09/30 12:34:32;;;;;;;1.17;0.80;;;29.30;32.10;;;;;;5048196;28;20083;-73
2023/09/30 12:36:59;;;;;;;2.97;1.50;;;29.00;32.50;;;;;;5032116;28;20029;-73
2023/09/30 12:39:25;;;;;;;1.27;0.73;;;28.80;32.40;;;;;;5033493;28;20527;-73
2023/09/30 12:41:51;;;;;;;0.70;0.70;;;28.70;32.20;;;;;;5031089;28;20405;-73
2023/09/30 12:44:17;;;;;;;0.50;0.50;;;28.60;32.90;;;;;;5032384;28;20041;-73
2023/09/30 12:46:43;;;;;;;1.92;1.55;;;28.60;32.90;;;;;;5033349;28;20029;-73
2023/09/30 12:49:09;;;;;;;2.00;0.95;;;28.60;33.00;;;;;;5032139;28;20485;-73
2023/09/30 12:51:36;;;;;;;3.42;1.63;;;28.60;33.00;;;;;;5032567;28;20060;-73
2023/09/30 12:54:04;;;;;;;1.73;0.93;;;28.60;32.70;;;;;;5033654;28;20421;-73
2023/09/30 12:56:30;;;;;;;2.25;1.23;;;28.70;32.50;;;;;;5032997;28;20029;-73
2023/09/30 12:58:57;;;;;;;2.17;1.52;;;29.00;32.90;;;;;;5032044;28;20452;-73
2023/09/30 13:01:23;;;;;;;1.25;0.75;;;29.90;31.50;;;;;;5032400;28;20092;-74
2023/09/30 13:03:50;;;;;;;1.88;1.15;;;31.50;28.50;;;;;;5013933;28;20502;-73
2023/09/30 13:06:17;;;;;;;1.85;0.90;;;32.30;27.30;;;;;;5014845;28;20412;-73
2023/09/30 13:08:43;;;;;;;1.02;0.68;;;33.20;27.20;;;;;;5030531;28;20495;-73
2023/09/30 13:11:11;;;;;;;3.03;2.15;;;33.50;27.00;;;;;;5031550;28;20045;-73
2023/09/30 13:13:37;;;;;;;1.52;0.80;;;32.60;27.30;;;;;;5030789;28;20051;-73
2023/09/30 13:16:10;;;;;;;0.85;0.65;;;33.60;26.80;;;;;;5013152;28;20549;-73
2023/09/30 13:18:36;;;;;;;1.58;0.90;;;33.70;26.60;;;;;;5031658;28;20033;-73
2023/09/30 13:21:05;;;;;;;1.63;1.13;;;33.90;26.40;;;;;;5012926;28;20342;-73
2023/09/30 13:23:32;;;;;;;0.52;0.50;;;35.90;24.40;;;;;;5045830;28;20095;-73
2023/09/30 13:25:58;;;;;;;0.75;0.75;;;37.80;22.30;;;;;;5030341;28;20036;-73
2023/09/30 13:28:24;;;;;;;1.60;0.93;;;37.90;21.90;;;;;;5031361;28;20418;-73
2023/09/30 13:30:51;;;;;;;1.52;0.85;;;38.30;21.10;;;;;;5026010;28;20045;-73